sensor_id;sensor_type;location;lat;lon;timestamp;temperature;humidity
22153;DHT22;11242;50.536;12.688;2023-11-21T00:01:40;6.00;99.90
22153;DHT22;11242;50.536;12.688;2023-11-21T00:04:05;6.00;99.90
22153;DHT22;11242;50.536;12.688;2023-11-21T00:06:33;6.00;99.90
22153;DHT22;11242;50.536;12.688;2023-11-21T00:08:58;5.90;99.90
22153;DHT22;11242;50.536;12.688;2023-11-21T00:11:24;5.90;99.90
22153;DHT22;11242;50.536;12.688;2023-11-21T00:13:50;5.80;99.90
22153;DHT22;11242;50.536;12.688;2023-11-21T00:16:16;5.80;99.90
22153;DHT22;11242;50.536;12.688;2023-11-21T00:18:42;5.80;99.90
22153;DHT22;11242;50.536;12.688;2023-11-21T00:21:08;5.80;99.90
22153;DHT22;11242;50.536;12.688;2023-11-21T00:23:34;5.80;99.90
22153;DHT22;11242;50.536;12.688;2023-11-21T00:26:00;5.80;99.90
22153;DHT22;11242;50.536;12.688;2023-11-21T00:28:26;5.80;99.90
22153;DHT22;11242;50.536;12.688;2023-11-21T00:30:52;5.80;99.90
22153;DHT22;11242;50.536;12.688;2023-11-21T00:33:18;5.80;99.90
22153;DHT22;11242;50.536;12.688;2023-11-21T00:35:45;5.90;99.90
22153;DHT22;11242;50.536;12.688;2023-11-21T00:38:10;5.90;99.90
22153;DHT22;11242;50.536;12.688;2023-11-21T00:40:36;5.90;99.90
22153;DHT22;11242;50.536;12.688;2023-11-21T00:43:03;5.90;99.90
22153;DHT22;11242;50.536;12.688;2023-11-21T00:45:28;5.90;99.90
22153;DHT22;11242;50.536;12.688;2023-11-21T00:47:54;6.00;99.90
22153;DHT22;11242;50.536;12.688;2023-11-21T00:50:22;6.00;99.90
22153;DHT22;11242;50.536;12.688;2023-11-21T00:52:47;6.00;99.90
22153;DHT22;11242;50.536;12.688;2023-11-21T00:55:13;6.00;99.90
22153;DHT22;11242;50.536;12.688;2023-11-21T00:57:38;6.00;99.90
22153;DHT22;11242;50.536;12.688;2023-11-21T01:00:05;5.90;99.90
22153;DHT22;11242;50.536;12.688;2023-11-21T01:02:45;5.90;99.90
22153;DHT22;11242;50.536;12.688;2023-11-21T01:05:10;5.90;99.90
22153;DHT22;11242;50.536;12.688;2023-11-21T01:07:36;6.00;99.90
22153;DHT22;11242;50.536;12.688;2023-11-21T01:10:03;6.00;99.90
22153;DHT22;11242;50.536;12.688;2023-11-21T01:12:31;5.90;99.90
22153;DHT22;11242;50.536;12.688;2023-11-21T01:14:57;5.90;99.90
22153;DHT22;11242;50.536;12.688;2023-11-21T01:17:25;5.90;99.90
22153;DHT22;11242;50.536;12.688;2023-11-21T01:19:51;5.80;99.90
22153;DHT22;11242;50.536;12.688;2023-11-21T01:22:17;5.80;99.90
22153;DHT22;11242;50.536;12.688;2023-11-21T01:24:47;5.80;99.90
22153;DHT22;11242;50.536;12.688;2023-11-21T01:27:13;5.80;99.90
22153;DHT22;11242;50.536;12.688;2023-11-21T01:29:38;5.80;99.90
22153;DHT22;11242;50.536;12.688;2023-11-21T01:32:05;5.80;99.90
22153;DHT22;11242;50.536;12.688;2023-11-21T01:34:33;5.80;99.90
22153;DHT22;11242;50.536;12.688;2023-11-21T01:36:59;5.80;99.90
22153;DHT22;11242;50.536;12.688;2023-11-21T01:39:27;5.80;99.90
22153;DHT22;11242;50.536;12.688;2023-11-21T01:41:53;5.80;99.90
22153;DHT22;11242;50.536;12.688;2023-11-21T01:44:20;5.90;99.90
22153;DHT22;11242;50.536;12.688;2023-11-21T01:46:46;5.90;99.90
22153;DHT22;11242;50.536;12.688;2023-11-21T01:49:13;5.90;99.90
22153;DHT22;11242;50.536;12.688;2023-11-21T01:51:43;5.90;99.90
22153;DHT22;11242;50.536;12.688;2023-11-21T01:54:12;5.90;99.90
22153;DHT22;11242;50.536;12.688;2023-11-21T01:56:37;5.90;99.90
22153;DHT22;11242;50.536;12.688;2023-11-21T01:59:03;5.90;99.90
22153;DHT22;11242;50.536;12.688;2023-11-21T02:01:29;5.90;99.90
22153;DHT22;11242;50.536;12.688;2023-11-21T02:03:54;6.00;99.90
22153;DHT22;11242;50.536;12.688;2023-11-21T02:06:21;5.90;99.90
22153;DHT22;11242;50.536;12.688;2023-11-21T02:08:47;6.00;99.90
22153;DHT22;11242;50.536;12.688;2023-11-21T02:11:13;6.00;99.90
22153;DHT22;11242;50.536;12.688;2023-11-21T02:13:39;6.00;99.90
22153;DHT22;11242;50.536;12.688;2023-11-21T02:16:10;6.00;99.90
22153;DHT22;11242;50.536;12.688;2023-11-21T02:18:38;6.00;99.90
22153;DHT22;11242;50.536;12.688;2023-11-21T02:21:04;5.90;99.90
22153;DHT22;11242;50.536;12.688;2023-11-21T02:23:30;5.90;99.90
22153;DHT22;11242;50.536;12.688;2023-11-21T02:25:56;5.90;99.90
22153;DHT22;11242;50.536;12.688;2023-11-21T02:28:23;5.90;99.90
22153;DHT22;11242;50.536;12.688;2023-11-21T02:30:52;5.90;99.90
22153;DHT22;11242;50.536;12.688;2023-11-21T02:33:22;5.90;99.90
22153;DHT22;11242;50.536;12.688;2023-11-21T02:35:48;5.90;99.90
22153;DHT22;11242;50.536;12.688;2023-11-21T02:38:13;5.90;99.90
22153;DHT22;11242;50.536;12.688;2023-11-21T02:40:39;5.90;99.90
22153;DHT22;11242;50.536;12.688;2023-11-21T02:43:05;5.90;99.90
22153;DHT22;11242;50.536;12.688;2023-11-21T02:45:31;5.90;99.90
22153;DHT22;11242;50.536;12.688;2023-11-21T02:47:57;5.90;99.90
22153;DHT22;11242;50.536;12.688;2023-11-21T02:50:23;5.90;99.90
22153;DHT22;11242;50.536;12.688;2023-11-21T02:52:49;5.80;99.90
22153;DHT22;11242;50.536;12.688;2023-11-21T02:55:14;5.80;99.90
22153;DHT22;11242;50.536;12.688;2023-11-21T02:57:40;5.80;99.90
22153;DHT22;11242;50.536;12.688;2023-11-21T03:00:06;5.80;99.90
22153;DHT22;11242;50.536;12.688;2023-11-21T03:02:40;5.80;99.90
22153;DHT22;11242;50.536;12.688;2023-11-21T03:05:06;5.80;99.90
22153;DHT22;11242;50.536;12.688;2023-11-21T03:07:34;5.80;99.90
22153;DHT22;11242;50.536;12.688;2023-11-21T03:10:00;5.90;99.90
22153;DHT22;11242;50.536;12.688;2023-11-21T03:12:26;5.90;99.90
22153;DHT22;11242;50.536;12.688;2023-11-21T03:14:51;5.90;99.90
22153;DHT22;11242;50.536;12.688;2023-11-21T03:17:17;5.90;99.90
22153;DHT22;11242;50.536;12.688;2023-11-21T03:19:43;6.00;99.90
22153;DHT22;11242;50.536;12.688;2023-11-21T03:22:08;5.90;99.90
22153;DHT22;11242;50.536;12.688;2023-11-21T03:24:35;6.00;99.90
22153;DHT22;11242;50.536;12.688;2023-11-21T03:27:00;6.00;99.90
22153;DHT22;11242;50.536;12.688;2023-11-21T03:29:26;6.00;99.90
22153;DHT22;11242;50.536;12.688;2023-11-21T03:31:52;6.00;99.90
22153;DHT22;11242;50.536;12.688;2023-11-21T03:34:25;6.00;99.90
22153;DHT22;11242;50.536;12.688;2023-11-21T03:36:54;5.90;99.90
22153;DHT22;11242;50.536;12.688;2023-11-21T03:39:20;5.90;99.90
22153;DHT22;11242;50.536;12.688;2023-11-21T03:41:46;5.90;99.90
22153;DHT22;11242;50.536;12.688;2023-11-21T03:44:13;5.80;99.90
22153;DHT22;11242;50.536;12.688;2023-11-21T03:46:38;5.90;99.90
22153;DHT22;11242;50.536;12.688;2023-11-21T03:49:04;5.90;99.90
22153;DHT22;11242;50.536;12.688;2023-11-21T03:51:29;5.90;99.90
22153;DHT22;11242;50.536;12.688;2023-11-21T03:53:55;5.90;99.90
22153;DHT22;11242;50.536;12.688;2023-11-21T03:56:21;5.90;99.90
22153;DHT22;11242;50.536;12.688;2023-11-21T03:58:49;6.00;99.90
22153;DHT22;11242;50.536;12.688;2023-11-21T04:01:24;6.00;99.90
22153;DHT22;11242;50.536;12.688;2023-11-21T04:03:50;5.90;99.90
22153;DHT22;11242;50.536;12.688;2023-11-21T04:06:17;5.90;99.90
22153;DHT22;11242;50.536;12.688;2023-11-21T04:08:46;5.90;99.90
22153;DHT22;11242;50.536;12.688;2023-11-21T04:11:12;5.80;99.90
22153;DHT22;11242;50.536;12.688;2023-11-21T04:13:39;5.80;99.90
22153;DHT22;11242;50.536;12.688;2023-11-21T04:16:06;5.70;99.90
22153;DHT22;11242;50.536;12.688;2023-11-21T04:18:32;5.70;99.90
22153;DHT22;11242;50.536;12.688;2023-11-21T04:20:59;5.60;99.90
22153;DHT22;11242;50.536;12.688;2023-11-21T04:23:24;5.60;99.90
22153;DHT22;11242;50.536;12.688;2023-11-21T04:25:50;5.60;99.90
22153;DHT22;11242;50.536;12.688;2023-11-21T04:28:16;5.60;99.90
22153;DHT22;11242;50.536;12.688;2023-11-21T04:30:42;5.70;99.90
22153;DHT22;11242;50.536;12.688;2023-11-21T04:33:07;5.70;99.90
22153;DHT22;11242;50.536;12.688;2023-11-21T04:35:33;5.70;99.90
22153;DHT22;11242;50.536;12.688;2023-11-21T04:37:58;5.70;99.90
22153;DHT22;11242;50.536;12.688;2023-11-21T04:40:24;5.70;99.90
22153;DHT22;11242;50.536;12.688;2023-11-21T04:42:49;5.70;99.90
22153;DHT22;11242;50.536;12.688;2023-11-21T04:45:15;5.80;99.90
22153;DHT22;11242;50.536;12.688;2023-11-21T04:47:41;5.70;99.90
22153;DHT22;11242;50.536;12.688;2023-11-21T04:50:06;5.80;99.90
22153;DHT22;11242;50.536;12.688;2023-11-21T04:52:32;5.80;99.90
22153;DHT22;11242;50.536;12.688;2023-11-21T04:54:58;5.80;99.90
22153;DHT22;11242;50.536;12.688;2023-11-21T04:57:26;5.80;99.90
22153;DHT22;11242;50.536;12.688;2023-11-21T04:59:54;5.90;99.90
22153;DHT22;11242;50.536;12.688;2023-11-21T05:02:19;5.90;99.90
22153;DHT22;11242;50.536;12.688;2023-11-21T05:04:46;5.90;99.90
22153;DHT22;11242;50.536;12.688;2023-11-21T05:07:12;6.00;99.90
22153;DHT22;11242;50.536;12.688;2023-11-21T05:09:42;6.00;99.90
22153;DHT22;11242;50.536;12.688;2023-11-21T05:12:09;6.00;99.90
22153;DHT22;11242;50.536;12.688;2023-11-21T05:14:35;6.00;99.90
22153;DHT22;11242;50.536;12.688;2023-11-21T05:17:01;6.00;99.90
22153;DHT22;11242;50.536;12.688;2023-11-21T05:19:26;6.00;99.90
22153;DHT22;11242;50.536;12.688;2023-11-21T05:21:52;6.00;99.90
22153;DHT22;11242;50.536;12.688;2023-11-21T05:24:18;6.00;99.90
22153;DHT22;11242;50.536;12.688;2023-11-21T05:26:43;6.00;99.90
22153;DHT22;11242;50.536;12.688;2023-11-21T05:29:09;6.00;99.90
22153;DHT22;11242;50.536;12.688;2023-11-21T05:31:36;6.00;99.90
22153;DHT22;11242;50.536;12.688;2023-11-21T05:34:03;5.90;99.90
22153;DHT22;11242;50.536;12.688;2023-11-21T05:36:30;5.90;99.90
22153;DHT22;11242;50.536;12.688;2023-11-21T05:38:56;5.90;99.90
22153;DHT22;11242;50.536;12.688;2023-11-21T05:41:21;5.90;99.90
22153;DHT22;11242;50.536;12.688;2023-11-21T05:43:47;5.90;99.90
22153;DHT22;11242;50.536;12.688;2023-11-21T05:46:12;5.90;99.90
22153;DHT22;11242;50.536;12.688;2023-11-21T05:48:38;5.90;99.90
22153;DHT22;11242;50.536;12.688;2023-11-21T05:51:06;5.90;99.90
22153;DHT22;11242;50.536;12.688;2023-11-21T05:53:31;5.90;99.90
22153;DHT22;11242;50.536;12.688;2023-11-21T05:55:57;5.80;99.90
22153;DHT22;11242;50.536;12.688;2023-11-21T05:58:23;5.80;99.90
22153;DHT22;11242;50.536;12.688;2023-11-21T06:00:49;5.80;99.90
22153;DHT22;11242;50.536;12.688;2023-11-21T06:03:14;5.80;99.90
22153;DHT22;11242;50.536;12.688;2023-11-21T06:05:40;5.80;99.90
22153;DHT22;11242;50.536;12.688;2023-11-21T06:08:05;5.80;99.90
22153;DHT22;11242;50.536;12.688;2023-11-21T06:10:32;5.80;99.90
22153;DHT22;11242;50.536;12.688;2023-11-21T06:12:58;5.80;99.90
22153;DHT22;11242;50.536;12.688;2023-11-21T06:15:24;5.80;99.90
22153;DHT22;11242;50.536;12.688;2023-11-21T06:17:49;5.80;99.90
22153;DHT22;11242;50.536;12.688;2023-11-21T06:20:18;5.80;99.90
22153;DHT22;11242;50.536;12.688;2023-11-21T06:22:45;5.80;99.90
22153;DHT22;11242;50.536;12.688;2023-11-21T06:25:12;5.80;99.90
22153;DHT22;11242;50.536;12.688;2023-11-21T06:27:40;5.80;99.90
22153;DHT22;11242;50.536;12.688;2023-11-21T06:30:06;5.80;99.90
22153;DHT22;11242;50.536;12.688;2023-11-21T06:32:34;5.80;99.90
22153;DHT22;11242;50.536;12.688;2023-11-21T06:35:01;5.80;99.90
22153;DHT22;11242;50.536;12.688;2023-11-21T06:37:27;5.80;99.90
22153;DHT22;11242;50.536;12.688;2023-11-21T06:39:53;5.80;99.90
22153;DHT22;11242;50.536;12.688;2023-11-21T06:42:19;5.80;99.90
22153;DHT22;11242;50.536;12.688;2023-11-21T06:44:45;5.80;99.90
22153;DHT22;11242;50.536;12.688;2023-11-21T06:47:11;5.80;99.90
22153;DHT22;11242;50.536;12.688;2023-11-21T06:49:37;5.90;99.90
22153;DHT22;11242;50.536;12.688;2023-11-21T06:52:04;5.90;99.90
22153;DHT22;11242;50.536;12.688;2023-11-21T06:54:31;5.90;99.90
22153;DHT22;11242;50.536;12.688;2023-11-21T06:56:58;5.90;99.90
22153;DHT22;11242;50.536;12.688;2023-11-21T06:59:23;5.90;99.90
22153;DHT22;11242;50.536;12.688;2023-11-21T07:01:50;5.90;99.90
22153;DHT22;11242;50.536;12.688;2023-11-21T07:04:15;5.90;99.90
22153;DHT22;11242;50.536;12.688;2023-11-21T07:06:41;5.90;99.90
22153;DHT22;11242;50.536;12.688;2023-11-21T07:09:08;5.90;99.90
22153;DHT22;11242;50.536;12.688;2023-11-21T07:11:35;5.90;99.90
22153;DHT22;11242;50.536;12.688;2023-11-21T07:14:00;6.00;99.90
22153;DHT22;11242;50.536;12.688;2023-11-21T07:16:36;6.00;99.90
22153;DHT22;11242;50.536;12.688;2023-11-21T07:19:05;6.00;99.90
22153;DHT22;11242;50.536;12.688;2023-11-21T07:21:37;6.00;99.90
22153;DHT22;11242;50.536;12.688;2023-11-21T07:24:03;6.00;99.90
22153;DHT22;11242;50.536;12.688;2023-11-21T07:26:30;6.00;99.90
22153;DHT22;11242;50.536;12.688;2023-11-21T07:28:56;6.00;99.90
22153;DHT22;11242;50.536;12.688;2023-11-21T07:31:22;6.10;99.90
22153;DHT22;11242;50.536;12.688;2023-11-21T07:33:48;6.10;99.90
22153;DHT22;11242;50.536;12.688;2023-11-21T07:36:14;6.20;99.90
22153;DHT22;11242;50.536;12.688;2023-11-21T07:38:41;6.20;99.90
22153;DHT22;11242;50.536;12.688;2023-11-21T07:41:07;6.20;99.90
22153;DHT22;11242;50.536;12.688;2023-11-21T07:43:36;6.20;99.90
22153;DHT22;11242;50.536;12.688;2023-11-21T07:46:03;6.20;99.90
22153;DHT22;11242;50.536;12.688;2023-11-21T07:48:29;6.20;99.90
22153;DHT22;11242;50.536;12.688;2023-11-21T07:50:55;6.30;99.90
22153;DHT22;11242;50.536;12.688;2023-11-21T07:53:21;6.30;99.90
22153;DHT22;11242;50.536;12.688;2023-11-21T07:55:47;6.30;99.90
22153;DHT22;11242;50.536;12.688;2023-11-21T07:58:13;6.30;99.90
22153;DHT22;11242;50.536;12.688;2023-11-21T08:00:39;6.40;99.90
22153;DHT22;11242;50.536;12.688;2023-11-21T08:03:05;6.40;99.90
22153;DHT22;11242;50.536;12.688;2023-11-21T08:05:31;6.50;99.90
22153;DHT22;11242;50.536;12.688;2023-11-21T08:07:57;6.50;99.90
22153;DHT22;11242;50.536;12.688;2023-11-21T08:10:22;6.50;99.90
22153;DHT22;11242;50.536;12.688;2023-11-21T08:12:48;6.60;99.90
22153;DHT22;11242;50.536;12.688;2023-11-21T08:15:15;6.70;99.90
22153;DHT22;11242;50.536;12.688;2023-11-21T08:17:41;6.80;99.90
22153;DHT22;11242;50.536;12.688;2023-11-21T08:20:07;7.00;99.90
22153;DHT22;11242;50.536;12.688;2023-11-21T08:22:34;7.10;99.90
22153;DHT22;11242;50.536;12.688;2023-11-21T08:24:59;7.20;99.90
22153;DHT22;11242;50.536;12.688;2023-11-21T08:27:25;7.20;99.90
22153;DHT22;11242;50.536;12.688;2023-11-21T08:29:51;7.40;99.90
22153;DHT22;11242;50.536;12.688;2023-11-21T08:32:18;7.40;99.90
22153;DHT22;11242;50.536;12.688;2023-11-21T08:34:43;7.30;99.90
22153;DHT22;11242;50.536;12.688;2023-11-21T08:37:10;7.30;99.90
22153;DHT22;11242;50.536;12.688;2023-11-21T08:39:37;7.20;99.90
22153;DHT22;11242;50.536;12.688;2023-11-21T08:42:03;7.20;99.90
22153;DHT22;11242;50.536;12.688;2023-11-21T08:44:29;7.20;99.90
22153;DHT22;11242;50.536;12.688;2023-11-21T08:46:55;7.20;99.90
22153;DHT22;11242;50.536;12.688;2023-11-21T08:49:21;7.20;99.90
22153;DHT22;11242;50.536;12.688;2023-11-21T08:51:47;7.20;99.90
22153;DHT22;11242;50.536;12.688;2023-11-21T08:54:12;7.20;99.90
22153;DHT22;11242;50.536;12.688;2023-11-21T08:56:38;7.20;99.90
22153;DHT22;11242;50.536;12.688;2023-11-21T08:59:03;7.10;99.90
22153;DHT22;11242;50.536;12.688;2023-11-21T09:01:29;7.00;99.90
22153;DHT22;11242;50.536;12.688;2023-11-21T09:03:58;6.90;99.90
22153;DHT22;11242;50.536;12.688;2023-11-21T09:06:24;6.80;99.90
22153;DHT22;11242;50.536;12.688;2023-11-21T09:08:50;6.90;99.90
22153;DHT22;11242;50.536;12.688;2023-11-21T09:11:15;6.80;99.90
22153;DHT22;11242;50.536;12.688;2023-11-21T09:13:41;6.80;99.90
22153;DHT22;11242;50.536;12.688;2023-11-21T09:16:07;6.70;99.90
22153;DHT22;11242;50.536;12.688;2023-11-21T09:18:32;6.60;99.90
22153;DHT22;11242;50.536;12.688;2023-11-21T09:20:58;6.60;99.90
22153;DHT22;11242;50.536;12.688;2023-11-21T09:23:24;6.60;99.90
22153;DHT22;11242;50.536;12.688;2023-11-21T09:25:50;6.60;99.90
22153;DHT22;11242;50.536;12.688;2023-11-21T09:28:17;6.60;99.90
22153;DHT22;11242;50.536;12.688;2023-11-21T09:30:43;6.50;99.90
22153;DHT22;11242;50.536;12.688;2023-11-21T09:33:09;6.40;99.90
22153;DHT22;11242;50.536;12.688;2023-11-21T09:35:37;6.50;99.90
22153;DHT22;11242;50.536;12.688;2023-11-21T09:38:03;6.50;99.90
22153;DHT22;11242;50.536;12.688;2023-11-21T09:40:35;6.40;99.90
22153;DHT22;11242;50.536;12.688;2023-11-21T09:43:14;6.40;99.90
22153;DHT22;11242;50.536;12.688;2023-11-21T09:45:46;6.40;99.90
22153;DHT22;11242;50.536;12.688;2023-11-21T09:48:13;6.40;99.90
22153;DHT22;11242;50.536;12.688;2023-11-21T09:50:42;6.40;99.90
22153;DHT22;11242;50.536;12.688;2023-11-21T09:53:21;6.30;99.90
22153;DHT22;11242;50.536;12.688;2023-11-21T09:55:48;6.40;99.90
22153;DHT22;11242;50.536;12.688;2023-11-21T09:58:17;6.40;99.90
22153;DHT22;11242;50.536;12.688;2023-11-21T10:00:46;6.40;99.90
22153;DHT22;11242;50.536;12.688;2023-11-21T10:03:12;6.30;99.90
22153;DHT22;11242;50.536;12.688;2023-11-21T10:05:39;6.30;99.90
22153;DHT22;11242;50.536;12.688;2023-11-21T10:08:09;6.30;99.90
22153;DHT22;11242;50.536;12.688;2023-11-21T10:10:36;6.40;99.90
22153;DHT22;11242;50.536;12.688;2023-11-21T10:13:04;6.30;99.90
22153;DHT22;11242;50.536;12.688;2023-11-21T10:15:34;6.30;99.90
22153;DHT22;11242;50.536;12.688;2023-11-21T10:18:03;6.20;99.90
22153;DHT22;11242;50.536;12.688;2023-11-21T10:20:30;6.20;99.90
22153;DHT22;11242;50.536;12.688;2023-11-21T10:22:56;6.20;99.90
22153;DHT22;11242;50.536;12.688;2023-11-21T10:25:22;6.20;99.90
22153;DHT22;11242;50.536;12.688;2023-11-21T10:27:48;6.20;99.90
22153;DHT22;11242;50.536;12.688;2023-11-21T10:30:17;6.20;99.90
22153;DHT22;11242;50.536;12.688;2023-11-21T10:32:43;6.20;99.90
22153;DHT22;11242;50.536;12.688;2023-11-21T10:35:10;6.20;99.90
22153;DHT22;11242;50.536;12.688;2023-11-21T10:37:42;6.30;99.90
22153;DHT22;11242;50.536;12.688;2023-11-21T10:40:11;6.30;99.90
22153;DHT22;11242;50.536;12.688;2023-11-21T10:42:40;6.30;99.90
22153;DHT22;11242;50.536;12.688;2023-11-21T10:45:07;6.30;99.90
22153;DHT22;11242;50.536;12.688;2023-11-21T10:47:43;6.50;99.90
22153;DHT22;11242;50.536;12.688;2023-11-21T10:50:09;6.60;99.90
22153;DHT22;11242;50.536;12.688;2023-11-21T10:52:39;6.50;99.90
22153;DHT22;11242;50.536;12.688;2023-11-21T10:55:18;6.50;99.90
22153;DHT22;11242;50.536;12.688;2023-11-21T10:57:53;6.50;99.90
22153;DHT22;11242;50.536;12.688;2023-11-21T11:00:19;6.60;99.90
22153;DHT22;11242;50.536;12.688;2023-11-21T11:02:51;6.60;99.90
22153;DHT22;11242;50.536;12.688;2023-11-21T11:05:24;6.50;99.90
22153;DHT22;11242;50.536;12.688;2023-11-21T11:08:13;6.60;99.90
22153;DHT22;11242;50.536;12.688;2023-11-21T11:10:37;6.60;99.90
22153;DHT22;11242;50.536;12.688;2023-11-21T11:13:04;6.50;99.90
22153;DHT22;11242;50.536;12.688;2023-11-21T11:15:32;6.40;99.90
22153;DHT22;11242;50.536;12.688;2023-11-21T11:17:59;6.40;99.90
22153;DHT22;11242;50.536;12.688;2023-11-21T11:20:37;6.30;99.90
22153;DHT22;11242;50.536;12.688;2023-11-21T11:26:29;6.40;99.90
22153;DHT22;11242;50.536;12.688;2023-11-21T11:29:14;6.40;99.90
22153;DHT22;11242;50.536;12.688;2023-11-21T11:32:16;6.30;99.90
22153;DHT22;11242;50.536;12.688;2023-11-21T11:34:56;6.30;99.90
22153;DHT22;11242;50.536;12.688;2023-11-21T11:37:25;6.30;99.90
22153;DHT22;11242;50.536;12.688;2023-11-21T11:39:51;6.30;99.90
22153;DHT22;11242;50.536;12.688;2023-11-21T11:42:17;6.30;99.90
22153;DHT22;11242;50.536;12.688;2023-11-21T11:47:22;6.20;99.90
22153;DHT22;11242;50.536;12.688;2023-11-21T11:50:10;6.10;99.90
22153;DHT22;11242;50.536;12.688;2023-11-21T11:52:54;6.00;99.90
22153;DHT22;11242;50.536;12.688;2023-11-21T11:55:24;5.90;99.90
22153;DHT22;11242;50.536;12.688;2023-11-21T11:57:54;5.90;99.90
22153;DHT22;11242;50.536;12.688;2023-11-21T12:02:54;5.90;99.90
22153;DHT22;11242;50.536;12.688;2023-11-21T12:05:21;5.90;99.90
22153;DHT22;11242;50.536;12.688;2023-11-21T12:07:51;5.90;99.90
22153;DHT22;11242;50.536;12.688;2023-11-21T12:10:30;5.90;99.90
22153;DHT22;11242;50.536;12.688;2023-11-21T12:12:58;5.90;99.90
22153;DHT22;11242;50.536;12.688;2023-11-21T12:15:25;5.90;99.90
22153;DHT22;11242;50.536;12.688;2023-11-21T12:17:51;5.90;99.90
22153;DHT22;11242;50.536;12.688;2023-11-21T12:20:22;5.90;99.90
22153;DHT22;11242;50.536;12.688;2023-11-21T12:22:52;5.90;99.90
22153;DHT22;11242;50.536;12.688;2023-11-21T12:25:28;5.90;99.90
22153;DHT22;11242;50.536;12.688;2023-11-21T12:27:55;6.00;99.90
22153;DHT22;11242;50.536;12.688;2023-11-21T12:30:23;5.90;99.90
22153;DHT22;11242;50.536;12.688;2023-11-21T12:32:53;5.90;99.90
22153;DHT22;11242;50.536;12.688;2023-11-21T12:35:20;5.90;99.90
22153;DHT22;11242;50.536;12.688;2023-11-21T12:37:47;5.90;99.90
22153;DHT22;11242;50.536;12.688;2023-11-21T12:40:13;6.00;99.90
22153;DHT22;11242;50.536;12.688;2023-11-21T12:42:42;5.90;99.90
22153;DHT22;11242;50.536;12.688;2023-11-21T12:47:47;5.90;99.90
22153;DHT22;11242;50.536;12.688;2023-11-21T12:50:19;5.80;99.90
22153;DHT22;11242;50.536;12.688;2023-11-21T12:52:47;5.90;99.90
22153;DHT22;11242;50.536;12.688;2023-11-21T12:55:32;5.90;99.90
22153;DHT22;11242;50.536;12.688;2023-11-21T12:58:00;5.90;99.90
22153;DHT22;11242;50.536;12.688;2023-11-21T13:03:05;5.90;99.90
22153;DHT22;11242;50.536;12.688;2023-11-21T13:05:34;5.80;99.90
22153;DHT22;11242;50.536;12.688;2023-11-21T13:08:02;5.80;99.90
22153;DHT22;11242;50.536;12.688;2023-11-21T13:10:31;5.80;99.90
22153;DHT22;11242;50.536;12.688;2023-11-21T13:13:03;5.70;99.90
22153;DHT22;11242;50.536;12.688;2023-11-21T13:15:31;5.80;99.90
22153;DHT22;11242;50.536;12.688;2023-11-21T13:17:58;5.80;99.90
22153;DHT22;11242;50.536;12.688;2023-11-21T13:20:28;5.80;99.90
22153;DHT22;11242;50.536;12.688;2023-11-21T13:22:58;5.80;99.90
22153;DHT22;11242;50.536;12.688;2023-11-21T13:25:25;5.70;99.90
22153;DHT22;11242;50.536;12.688;2023-11-21T13:27:57;5.70;99.90
22153;DHT22;11242;50.536;12.688;2023-11-21T13:30:23;5.60;99.90
22153;DHT22;11242;50.536;12.688;2023-11-21T13:32:53;5.50;99.90
22153;DHT22;11242;50.536;12.688;2023-11-21T13:35:23;5.50;99.90
22153;DHT22;11242;50.536;12.688;2023-11-21T13:37:57;5.40;99.90
22153;DHT22;11242;50.536;12.688;2023-11-21T13:40:25;5.40;99.90
22153;DHT22;11242;50.536;12.688;2023-11-21T13:42:56;5.40;99.90
22153;DHT22;11242;50.536;12.688;2023-11-21T13:45:25;5.40;99.90
22153;DHT22;11242;50.536;12.688;2023-11-21T13:47:53;5.40;99.90
22153;DHT22;11242;50.536;12.688;2023-11-21T13:50:24;5.40;99.90
22153;DHT22;11242;50.536;12.688;2023-11-21T13:52:54;5.40;99.90
22153;DHT22;11242;50.536;12.688;2023-11-21T13:55:19;5.40;99.90
22153;DHT22;11242;50.536;12.688;2023-11-21T13:57:47;5.40;99.90
22153;DHT22;11242;50.536;12.688;2023-11-21T14:00:17;5.30;99.90
22153;DHT22;11242;50.536;12.688;2023-11-21T14:03:07;5.20;99.90
22153;DHT22;11242;50.536;12.688;2023-11-21T14:05:41;5.20;99.90
22153;DHT22;11242;50.536;12.688;2023-11-21T14:08:08;5.10;99.90
22153;DHT22;11242;50.536;12.688;2023-11-21T14:10:37;5.00;99.90
22153;DHT22;11242;50.536;12.688;2023-11-21T14:13:09;5.00;99.90
22153;DHT22;11242;50.536;12.688;2023-11-21T14:15:36;4.90;99.90
22153;DHT22;11242;50.536;12.688;2023-11-21T14:18:07;5.00;99.90
22153;DHT22;11242;50.536;12.688;2023-11-21T14:20:36;4.90;99.90
22153;DHT22;11242;50.536;12.688;2023-11-21T14:23:03;4.90;99.90
22153;DHT22;11242;50.536;12.688;2023-11-21T14:25:31;4.90;99.90
22153;DHT22;11242;50.536;12.688;2023-11-21T14:27:58;4.80;99.90
22153;DHT22;11242;50.536;12.688;2023-11-21T14:30:24;4.70;99.90
22153;DHT22;11242;50.536;12.688;2023-11-21T14:32:50;4.60;99.90
22153;DHT22;11242;50.536;12.688;2023-11-21T14:35:16;4.60;99.90
22153;DHT22;11242;50.536;12.688;2023-11-21T14:37:43;4.60;99.90
22153;DHT22;11242;50.536;12.688;2023-11-21T14:40:09;4.60;99.90
22153;DHT22;11242;50.536;12.688;2023-11-21T14:42:35;4.60;99.90
22153;DHT22;11242;50.536;12.688;2023-11-21T14:45:03;4.70;99.90
22153;DHT22;11242;50.536;12.688;2023-11-21T14:47:32;4.60;99.90
22153;DHT22;11242;50.536;12.688;2023-11-21T14:50:00;4.70;99.90
22153;DHT22;11242;50.536;12.688;2023-11-21T14:52:37;4.50;99.90
22153;DHT22;11242;50.536;12.688;2023-11-21T14:55:16;4.60;99.90
22153;DHT22;11242;50.536;12.688;2023-11-21T14:57:57;4.50;99.90
22153;DHT22;11242;50.536;12.688;2023-11-21T15:00:27;4.50;99.90
22153;DHT22;11242;50.536;12.688;2023-11-21T15:03:05;4.50;99.90
22153;DHT22;11242;50.536;12.688;2023-11-21T15:05:31;4.40;99.90
22153;DHT22;11242;50.536;12.688;2023-11-21T15:07:57;4.40;99.90
22153;DHT22;11242;50.536;12.688;2023-11-21T15:10:35;4.40;99.90
22153;DHT22;11242;50.536;12.688;2023-11-21T15:13:15;4.40;99.90
22153;DHT22;11242;50.536;12.688;2023-11-21T15:15:42;4.40;99.90
22153;DHT22;11242;50.536;12.688;2023-11-21T15:18:08;4.40;99.90
22153;DHT22;11242;50.536;12.688;2023-11-21T15:20:37;4.40;99.90
22153;DHT22;11242;50.536;12.688;2023-11-21T15:23:03;4.30;99.90
22153;DHT22;11242;50.536;12.688;2023-11-21T15:25:31;4.20;99.90
22153;DHT22;11242;50.536;12.688;2023-11-21T15:27:57;4.20;99.90
22153;DHT22;11242;50.536;12.688;2023-11-21T15:30:22;4.10;99.90
22153;DHT22;11242;50.536;12.688;2023-11-21T15:32:51;4.10;99.90
22153;DHT22;11242;50.536;12.688;2023-11-21T15:35:18;4.10;99.90
22153;DHT22;11242;50.536;12.688;2023-11-21T15:37:44;4.00;99.90
22153;DHT22;11242;50.536;12.688;2023-11-21T15:40:11;3.90;99.90
22153;DHT22;11242;50.536;12.688;2023-11-21T15:42:38;3.90;99.90
22153;DHT22;11242;50.536;12.688;2023-11-21T15:45:04;4.00;99.90
22153;DHT22;11242;50.536;12.688;2023-11-21T15:47:32;3.90;99.90